Time;durP1;ratioP1;P1;durP2;ratioP2;P2;SDS_P1;SDS_P2;PMS_P1;PMS_P2;Temp;Humidity;BMP_temperature;BMP_pressure;BME280_temperature;BME280_humidity;BME280_pressure;Samples;Min_cycle;Max_cycle;Signal;HPM_P1;HPM_P2
2021/01/27 00:00:29;;;;;;;26.83;17.37;;;0.70;99.90;;;;;;6217969;23;20613;-94
2021/01/27 00:02:59;;;;;;;26.73;17.73;;;0.70;99.90;;;;;;6219643;23;20160;-95
2021/01/27 00:05:30;;;;;;;27.87;18.30;;;0.70;99.90;;;;;;6218773;23;20150;-93
2021/01/27 00:07:59;;;;;;;26.63;17.63;;;0.70;99.90;;;;;;6218289;23;20202;-94
2021/01/27 00:10:31;;;;;;;29.40;17.97;;;0.70;99.90;;;;;;6219374;23;20157;-95
2021/01/27 00:13:01;;;;;;;27.43;18.13;;;0.70;99.90;;;;;;6218433;23;20154;-96
2021/01/27 00:15:34;;;;;;;26.20;16.83;;;0.70;99.90;;;;;;6218671;23;20457;-95
2021/01/27 00:18:04;;;;;;;27.97;17.23;;;0.70;99.90;;;;;;6218574;23;20202;-96
2021/01/27 00:20:50;;;;;;;26.23;16.73;;;0.70;99.90;;;;;;6218670;23;20152;-94
2021/01/27 00:23:28;;;;;;;26.50;17.27;;;0.70;99.90;;;;;;6220160;23;20242;-94
2021/01/27 00:25:55;;;;;;;26.30;17.13;;;0.70;99.90;;;;;;6222302;23;20204;-93
2021/01/27 00:28:23;;;;;;;25.10;17.40;;;0.70;99.90;;;;;;6219426;23;20180;-95
2021/01/27 00:31:01;;;;;;;24.37;17.23;;;0.70;99.90;;;;;;6220185;23;20158;-95
2021/01/27 00:33:31;;;;;;;28.03;17.30;;;0.80;99.90;;;;;;6220679;23;20204;-95
2021/01/27 00:35:59;;;;;;;26.00;17.73;;;0.80;99.90;;;;;;6221430;23;20203;-96
2021/01/27 00:38:43;;;;;;;28.63;17.43;;;0.80;99.90;;;;;;6220036;23;20264;-94
2021/01/27 00:41:13;;;;;;;28.40;17.33;;;0.80;99.90;;;;;;6220117;23;20149;-94
2021/01/27 00:43:41;;;;;;;26.33;18.17;;;0.80;99.90;;;;;;6221087;23;20160;-94
2021/01/27 00:46:21;;;;;;;27.57;17.37;;;0.70;99.90;;;;;;6220237;23;20164;-95
2021/01/27 00:48:54;;;;;;;26.13;16.67;;;0.80;99.90;;;;;;6220576;23;20200;-93
2021/01/27 00:51:32;;;;;;;26.13;16.23;;;0.70;99.90;;;;;;6220563;23;20149;-96
2021/01/27 00:53:58;;;;;;;26.83;17.63;;;0.70;99.90;;;;;;6219977;23;20257;-95
2021/01/27 00:56:25;;;;;;;32.77;18.50;;;0.70;99.90;;;;;;6220687;23;20157;-96
2021/01/27 00:58:55;;;;;;;27.70;18.00;;;0.60;99.90;;;;;;6219246;23;20187;-96
2021/01/27 01:01:24;;;;;;;29.00;18.70;;;0.60;99.90;;;;;;6220774;23;20464;-94
2021/01/27 01:03:57;;;;;;;32.67;19.20;;;0.60;99.90;;;;;;6220765;23;20157;-95
2021/01/27 01:06:41;;;;;;;29.43;18.20;;;0.70;99.90;;;;;;6220629;23;20175;-96
2021/01/27 01:09:07;;;;;;;31.30;19.70;;;0.60;99.90;;;;;;6219979;23;20181;-95
2021/01/27 01:11:37;;;;;;;30.80;19.97;;;0.70;99.90;;;;;;6220775;23;20482;-95
2021/01/27 01:14:37;;;;;;;31.80;18.77;;;0.70;99.90;;;;;;6218631;23;20233;-96
2021/01/27 01:17:03;;;;;;;34.17;19.70;;;0.80;99.90;;;;;;6220689;23;20153;-94
2021/01/27 01:19:33;;;;;;;29.93;19.50;;;0.80;99.90;;;;;;6219973;23;20563;-96
2021/01/27 01:22:09;;;;;;;34.00;20.47;;;0.80;99.90;;;;;;6221190;23;20149;-93
2021/01/27 01:25:13;;;;;;;39.90;20.77;;;0.90;99.90;;;;;;6219741;23;20200;-96
2021/01/27 01:27:41;;;;;;;37.20;21.10;;;0.90;99.90;;;;;;6221854;23;20166;-94
2021/01/27 01:30:21;;;;;;;40.27;22.13;;;0.90;99.90;;;;;;6221617;23;20169;-94
2021/01/27 01:32:48;;;;;;;37.17;21.50;;;1.00;99.90;;;;;;6223233;23;20164;-96
2021/01/27 01:35:18;;;;;;;37.53;22.00;;;1.00;99.90;;;;;;6225817;23;20174;-95
2021/01/27 01:37:54;;;;;;;39.53;23.30;;;1.00;99.90;;;;;;6226917;23;20188;-96
2021/01/27 01:40:46;;;;;;;37.37;22.50;;;1.00;99.90;;;;;;6227958;23;20156;-94
2021/01/27 01:43:33;;;;;;;39.53;22.13;;;1.00;99.90;;;;;;6228865;23;20176;-96
2021/01/27 01:46:04;;;;;;;42.10;24.00;;;1.00;99.90;;;;;;6236485;23;20213;-96
2021/01/27 01:48:40;;;;;;;40.17;23.30;;;1.10;99.90;;;;;;6236749;23;20179;-96
2021/01/27 01:51:30;;;;;;;39.20;21.93;;;1.10;99.90;;;;;;6236763;23;20167;-96
2021/01/27 01:54:00;;;;;;;33.40;20.13;;;1.10;99.90;;;;;;6235040;23;20267;-96
2021/01/27 01:56:29;;;;;;;38.87;21.93;;;1.10;99.90;;;;;;6121208;22;20389;-94
2021/01/27 01:58:59;;;;;;;37.47;22.13;;;1.10;99.90;;;;;;6128116;23;20590;-88
2021/01/27 02:01:25;;;;;;;37.63;21.53;;;1.10;99.90;;;;;;6126967;23;20214;-92
2021/01/27 02:03:52;;;;;;;36.93;22.23;;;1.10;99.90;;;;;;6127144;23;20161;-90
2021/01/27 02:06:18;;;;;;;35.43;21.30;;;1.10;99.90;;;;;;6127039;23;20218;-90
2021/01/27 02:08:49;;;;;;;39.03;22.33;;;1.00;99.90;;;;;;6126882;23;20254;-92
2021/01/27 02:11:17;;;;;;;39.77;21.53;;;1.00;99.90;;;;;;6127035;23;20237;-94
2021/01/27 02:14:17;;;;;;;36.17;22.33;;;1.00;99.90;;;;;;6126756;23;20205;-95
2021/01/27 02:17:25;;;;;;;38.23;22.73;;;1.00;99.90;;;;;;6127080;23;20160;-95
2021/01/27 02:20:03;;;;;;;38.67;22.23;;;1.00;99.90;;;;;;6119945;23;20198;-94
2021/01/27 02:22:47;;;;;;;42.23;24.30;;;1.00;99.90;;;;;;6151541;23;20608;-94
2021/01/27 02:25:59;;;;;;;43.83;23.73;;;1.00;99.90;;;;;;6151905;23;20166;-95
2021/01/27 02:28:54;;;;;;;40.47;23.63;;;1.00;99.90;;;;;;6072484;23;20164;-91
2021/01/27 02:31:41;;;;;;;38.90;23.63;;;1.10;99.90;;;;;;6097117;23;20243;-91
2021/01/27 02:34:55;;;;;;;43.20;24.53;;;1.10;99.90;;;;;;6124452;23;20688;-90
2021/01/27 02:37:27;;;;;;;42.77;24.73;;;1.10;99.90;;;;;;6119941;23;20600;-90
2021/01/27 02:40:15;;;;;;;45.63;25.73;;;1.10;99.90;;;;;;6126919;23;20148;-91
2021/01/27 02:42:46;;;;;;;41.13;24.30;;;1.10;99.90;;;;;;6126622;23;20159;-90
2021/01/27 02:45:25;;;;;;;44.83;25.57;;;1.20;99.90;;;;;;6126566;23;20155;-90
2021/01/27 02:48:06;;;;;;;39.73;23.50;;;1.20;99.90;;;;;;6126728;23;20155;-90
2021/01/27 02:50:44;;;;;;;43.17;24.97;;;1.10;99.90;;;;;;6126866;23;20156;-90
2021/01/27 02:53:17;;;;;;;45.43;26.67;;;1.20;99.90;;;;;;6126097;23;20519;-90
2021/01/27 02:56:08;;;;;;;47.30;25.60;;;1.20;99.90;;;;;;6151688;23;20160;-89
2021/01/27 02:58:43;;;;;;;44.10;27.23;;;1.20;99.90;;;;;;6123571;23;20171;-90
2021/01/27 03:01:18;;;;;;;44.87;26.17;;;1.20;99.90;;;;;;6100967;23;20172;-91
2021/01/27 03:03:49;;;;;;;46.50;25.33;;;1.20;99.90;;;;;;6098924;23;20180;-90
2021/01/27 03:06:18;;;;;;;38.67;24.87;;;1.20;99.90;;;;;;6099497;23;20164;-90
2021/01/27 03:09:26;;;;;;;39.50;24.77;;;1.20;99.90;;;;;;6100779;23;20158;-91
2021/01/27 03:11:51;;;;;;;44.17;26.07;;;1.20;99.90;;;;;;6084503;23;20505;-90
2021/01/27 03:14:17;;;;;;;45.30;27.27;;;1.10;99.90;;;;;;6100395;23;20188;-90
2021/01/27 03:17:02;;;;;;;43.23;25.83;;;1.10;99.90;;;;;;6099317;23;20160;-91
2021/01/27 03:19:39;;;;;;;41.17;25.93;;;1.10;99.90;;;;;;6099098;23;20167;-92
2021/01/27 03:22:22;;;;;;;48.83;27.23;;;1.00;99.90;;;;;;6100626;23;20167;-91
2021/01/27 03:25:06;;;;;;;43.73;26.73;;;1.00;99.90;;;;;;6099048;23;20163;-91
2021/01/27 03:27:39;;;;;;;49.10;27.27;;;1.00;99.90;;;;;;6098752;23;20192;-92
2021/01/27 03:30:10;;;;;;;40.70;25.63;;;1.00;99.90;;;;;;6099177;23;20501;-90
2021/01/27 03:33:08;;;;;;;45.80;28.00;;;1.00;99.90;;;;;;6098865;23;20214;-92
2021/01/27 03:35:46;;;;;;;52.03;28.80;;;1.10;99.90;;;;;;6098959;23;20475;-92
2021/01/27 03:38:34;;;;;;;44.67;29.00;;;1.10;99.90;;;;;;6098602;23;20556;-91
2021/01/27 03:41:07;;;;;;;48.57;28.23;;;1.10;99.90;;;;;;6098606;23;20187;-90
2021/01/27 03:43:40;;;;;;;49.77;29.23;;;1.10;99.90;;;;;;6123132;23;20158;-91
2021/01/27 03:46:29;;;;;;;46.87;29.23;;;1.10;99.90;;;;;;6098956;23;20567;-92
2021/01/27 03:49:10;;;;;;;48.63;26.87;;;1.10;99.90;;;;;;6123480;23;20195;-92
2021/01/27 03:51:42;;;;;;;44.93;26.50;;;1.10;99.90;;;;;;6099923;23;20149;-91
2021/01/27 03:54:15;;;;;;;51.30;29.00;;;1.10;99.90;;;;;;6098960;23;20196;-91
2021/01/27 03:57:11;;;;;;;44.97;28.03;;;1.10;99.90;;;;;;6108963;23;20198;-92
2021/01/27 03:59:36;;;;;;;48.17;27.77;;;1.10;99.90;;;;;;6126147;23;20596;-92
2021/01/27 04:02:13;;;;;;;44.80;27.90;;;1.10;99.90;;;;;;6128011;23;20156;-91
2021/01/27 04:04:39;;;;;;;41.90;25.80;;;1.10;99.90;;;;;;6128178;23;20147;-91
2021/01/27 04:07:05;;;;;;;40.87;26.30;;;1.10;99.90;;;;;;6127937;23;20164;-92
2021/01/27 04:09:30;;;;;;;46.37;28.00;;;1.00;99.90;;;;;;6128131;23;20237;-93
2021/01/27 04:11:56;;;;;;;43.53;27.70;;;1.00;99.90;;;;;;6127993;23;20159;-91
2021/01/27 04:14:22;;;;;;;47.13;27.60;;;1.00;99.90;;;;;;6127909;23;20202;-90
2021/01/27 04:16:47;;;;;;;46.77;26.87;;;0.90;99.90;;;;;;6128023;23;20183;-90
2021/01/27 04:19:13;;;;;;;44.90;27.70;;;1.00;99.90;;;;;;6128025;23;20474;-91
2021/01/27 04:21:38;;;;;;;44.90;27.53;;;1.00;99.90;;;;;;6128187;23;20203;-92
2021/01/27 04:24:05;;;;;;;40.40;26.70;;;1.00;99.90;;;;;;6127954;23;20242;-91
2021/01/27 04:26:31;;;;;;;44.90;27.03;;;1.00;99.90;;;;;;6127738;23;20233;-89
2021/01/27 04:28:56;;;;;;;45.10;28.80;;;1.10;99.90;;;;;;6127873;23;20583;-90
2021/01/27 04:31:22;;;;;;;47.20;27.97;;;1.10;99.90;;;;;;6128081;23;20153;-92
2021/01/27 04:33:48;;;;;;;46.23;27.17;;;1.10;99.90;;;;;;6127669;23;20189;-93
2021/01/27 04:36:15;;;;;;;46.03;29.43;;;1.00;99.90;;;;;;6127940;23;20163;-92
2021/01/27 04:38:41;;;;;;;46.77;27.67;;;1.00;99.90;;;;;;6127584;23;20166;-92
2021/01/27 04:41:06;;;;;;;49.20;28.47;;;1.10;99.90;;;;;;6127897;23;20152;-92
2021/01/27 04:43:42;;;;;;;42.40;27.07;;;1.10;99.90;;;;;;6127030;23;20159;-91
2021/01/27 04:46:22;;;;;;;41.57;27.17;;;1.20;99.90;;;;;;6127341;23;20238;-92
2021/01/27 04:49:08;;;;;;;47.03;27.17;;;1.10;99.90;;;;;;6127710;23;20159;-92
2021/01/27 04:52:13;;;;;;;45.50;28.70;;;1.10;99.90;;;;;;6152305;23;20159;-93
2021/01/27 04:55:00;;;;;;;48.77;27.37;;;1.10;99.90;;;;;;6127669;23;20491;-92
2021/01/27 04:57:48;;;;;;;45.67;27.20;;;1.10;99.90;;;;;;6151389;23;20497;-92
2021/01/27 05:00:36;;;;;;;43.73;26.63;;;1.10;99.90;;;;;;6127333;23;20163;-90
2021/01/27 05:03:20;;;;;;;46.20;26.83;;;1.10;99.90;;;;;;6127524;23;20182;-90
2021/01/27 05:05:53;;;;;;;43.63;26.00;;;1.10;99.90;;;;;;6126689;23;20166;-90
2021/01/27 05:08:40;;;;;;;50.43;27.87;;;1.00;99.90;;;;;;6127355;23;20226;-90
2021/01/27 05:11:09;;;;;;;40.97;26.17;;;1.10;99.90;;;;;;6127586;23;20563;-91
2021/01/27 05:13:41;;;;;;;41.90;25.23;;;1.10;99.90;;;;;;6126975;23;20184;-93
2021/01/27 05:16:14;;;;;;;44.80;27.33;;;1.00;99.90;;;;;;6127248;23;20439;-92
2021/01/27 05:18:41;;;;;;;45.57;27.40;;;1.00;99.90;;;;;;6126712;23;20207;-92
2021/01/27 05:21:34;;;;;;;45.60;28.07;;;1.00;99.90;;;;;;6127107;23;20166;-91
2021/01/27 05:24:01;;;;;;;45.20;27.33;;;1.00;99.90;;;;;;6152003;23;20175;-93
2021/01/27 05:26:52;;;;;;;41.73;26.27;;;1.00;99.90;;;;;;6126892;23;20166;-92
2021/01/27 05:29:24;;;;;;;42.80;26.00;;;0.90;99.90;;;;;;6120959;23;20235;-93
2021/01/27 05:32:06;;;;;;;38.93;25.93;;;0.90;99.90;;;;;;6127398;23;20162;-92
2021/01/27 05:34:39;;;;;;;41.23;26.50;;;0.90;99.90;;;;;;6127088;23;20184;-92
2021/01/27 05:37:15;;;;;;;41.73;26.43;;;0.90;99.90;;;;;;6127122;23;20156;-93
2021/01/27 05:39:43;;;;;;;36.77;24.80;;;0.90;99.90;;;;;;6126884;23;20167;-92
2021/01/27 05:42:27;;;;;;;42.83;26.90;;;0.90;99.90;;;;;;6126725;23;20179;-93
2021/01/27 05:44:55;;;;;;;46.07;26.87;;;0.90;99.90;;;;;;6151802;23;20152;-94
2021/01/27 05:47:38;;;;;;;44.37;27.10;;;0.90;99.90;;;;;;6127220;23;20156;-94
2021/01/27 05:50:33;;;;;;;41.17;27.27;;;0.90;99.90;;;;;;6126875;23;20166;-93
2021/01/27 05:53:18;;;;;;;38.13;25.83;;;0.90;99.90;;;;;;6120508;23;20555;-93
2021/01/27 05:56:11;;;;;;;46.30;26.00;;;0.90;99.90;;;;;;6126459;23;20160;-92
2021/01/27 05:58:39;;;;;;;39.27;25.63;;;0.90;99.90;;;;;;6150836;23;20197;-92
2021/01/27 06:01:15;;;;;;;42.67;26.23;;;0.90;99.90;;;;;;6127008;23;20237;-92
2021/01/27 06:04:10;;;;;;;42.23;26.53;;;1.00;99.90;;;;;;6151319;23;20151;-92
2021/01/27 06:06:40;;;;;;;41.13;24.93;;;1.00;99.90;;;;;;6125528;23;20169;-93
2021/01/27 06:09:07;;;;;;;39.40;24.70;;;1.00;99.90;;;;;;6126770;23;20187;-91
2021/01/27 06:11:33;;;;;;;43.23;25.50;;;1.00;99.90;;;;;;6126900;23;20186;-92
2021/01/27 06:14:15;;;;;;;38.07;24.80;;;1.10;99.90;;;;;;6126660;23;20187;-90
2021/01/27 06:16:44;;;;;;;36.67;23.30;;;1.10;99.90;;;;;;6126495;23;20567;-93
2021/01/27 06:19:23;;;;;;;40.40;23.30;;;1.10;99.90;;;;;;6126733;23;20459;-92
2021/01/27 06:21:55;;;;;;;38.70;22.63;;;1.10;99.90;;;;;;6127174;23;20199;-93
2021/01/27 06:24:58;;;;;;;32.70;21.70;;;1.10;99.90;;;;;;6151428;23;20156;-91
2021/01/27 06:27:44;;;;;;;34.90;22.13;;;1.10;99.90;;;;;;6151161;23;20168;-91
2021/01/27 06:30:27;;;;;;;32.93;21.67;;;1.10;99.90;;;;;;6127587;23;20222;-92
2021/01/27 06:33:18;;;;;;;34.63;21.87;;;1.10;99.90;;;;;;6130231;23;20580;-91
2021/01/27 06:35:56;;;;;;;35.40;20.80;;;1.10;99.90;;;;;;6128655;23;20246;-93
2021/01/27 06:38:48;;;;;;;33.57;21.70;;;1.10;99.90;;;;;;6128498;23;20163;-92
2021/01/27 06:41:39;;;;;;;35.40;19.93;;;1.10;99.90;;;;;;6153530;23;20155;-90
2021/01/27 06:44:30;;;;;;;33.77;21.37;;;1.10;99.90;;;;;;6120393;23;20154;-91
2021/01/27 06:47:14;;;;;;;35.70;22.23;;;1.10;99.90;;;;;;6128678;23;20571;-91
2021/01/27 06:49:50;;;;;;;34.20;20.90;;;1.10;99.90;;;;;;6128346;23;20165;-91
2021/01/27 06:52:37;;;;;;;35.63;21.30;;;1.10;99.90;;;;;;6130029;23;20140;-91
2021/01/27 06:55:17;;;;;;;32.77;20.63;;;1.20;99.90;;;;;;6153048;23;20253;-92
2021/01/27 06:58:07;;;;;;;33.07;21.03;;;1.10;99.90;;;;;;6128022;23;20206;-92
2021/01/27 07:01:02;;;;;;;34.07;21.57;;;1.10;99.90;;;;;;6128780;23;20233;-91
2021/01/27 07:03:54;;;;;;;37.53;21.87;;;1.20;99.90;;;;;;6126781;23;20197;-89
2021/01/27 07:06:32;;;;;;;28.13;20.23;;;1.10;99.90;;;;;;6153600;23;20163;-92
2021/01/27 07:09:21;;;;;;;37.40;21.47;;;1.20;99.90;;;;;;6128972;23;20183;-92
2021/01/27 07:12:12;;;;;;;33.37;20.90;;;1.20;99.90;;;;;;6128139;23;20167;-91
2021/01/27 07:14:46;;;;;;;31.03;20.57;;;1.10;99.90;;;;;;6128476;23;20193;-91
2021/01/27 07:17:42;;;;;;;30.30;21.00;;;1.20;99.90;;;;;;6129689;23;20563;-89
2021/01/27 07:20:19;;;;;;;27.47;18.47;;;1.10;99.90;;;;;;6128658;23;20460;-91
2021/01/27 07:23:10;;;;;;;33.23;19.27;;;1.20;99.90;;;;;;6128345;23;20151;-91
2021/01/27 07:25:41;;;;;;;32.33;18.63;;;1.10;99.90;;;;;;6153181;23;20172;-92
2021/01/27 07:28:29;;;;;;;24.07;17.73;;;1.10;99.90;;;;;;6152338;23;20169;-92
2021/01/27 07:31:07;;;;;;;27.77;18.10;;;1.20;99.90;;;;;;6153107;23;20163;-90
2021/01/27 07:33:56;;;;;;;27.60;18.17;;;1.10;99.90;;;;;;6129616;23;20179;-90
2021/01/27 07:36:43;;;;;;;25.87;17.93;;;1.20;99.90;;;;;;6129496;23;20541;-90
2021/01/27 07:39:24;;;;;;;25.43;17.60;;;1.20;99.90;;;;;;6128168;23;20490;-93
2021/01/27 07:42:10;;;;;;;29.57;18.10;;;1.20;99.90;;;;;;6152323;23;20258;-91
2021/01/27 07:44:37;;;;;;;23.27;16.97;;;1.20;99.90;;;;;;6128400;23;20194;-91
2021/01/27 07:47:32;;;;;;;26.97;16.37;;;1.20;99.90;;;;;;6127976;23;20454;-90
2021/01/27 07:49:58;;;;;;;22.27;16.03;;;1.20;99.90;;;;;;6116391;23;20165;-90
2021/01/27 07:52:39;;;;;;;22.80;16.20;;;1.20;99.90;;;;;;6128205;23;20164;-90
2021/01/27 07:55:31;;;;;;;20.90;15.43;;;1.20;99.90;;;;;;6127882;23;20191;-92
2021/01/27 07:58:05;;;;;;;25.20;15.53;;;1.20;99.90;;;;;;6126824;23;20206;-91
2021/01/27 08:00:39;;;;;;;25.87;16.13;;;1.20;99.90;;;;;;6127713;23;20164;-90
2021/01/27 08:03:42;;;;;;;28.67;16.10;;;1.20;99.90;;;;;;6127561;23;20231;-90
2021/01/27 08:06:20;;;;;;;24.67;16.10;;;1.20;99.90;;;;;;6124370;23;20167;-90
2021/01/27 08:08:58;;;;;;;22.67;15.73;;;1.20;99.90;;;;;;6128185;23;20155;-91
2021/01/27 08:11:34;;;;;;;21.90;15.03;;;1.20;99.90;;;;;;6128288;23;20186;-90
2021/01/27 08:14:01;;;;;;;24.50;15.20;;;1.30;99.90;;;;;;6126461;23;20217;-90
2021/01/27 08:16:30;;;;;;;20.93;15.10;;;1.30;99.90;;;;;;6127545;23;20531;-89
2021/01/27 08:19:19;;;;;;;21.57;14.67;;;1.30;99.90;;;;;;6127439;23;20605;-91
2021/01/27 08:21:44;;;;;;;23.83;15.13;;;1.30;99.90;;;;;;6127654;23;20159;-89
2021/01/27 08:24:36;;;;;;;21.77;15.50;;;1.30;99.90;;;;;;6151973;23;20180;-90
2021/01/27 08:27:14;;;;;;;23.70;16.00;;;1.30;99.90;;;;;;6151795;23;20156;-90
2021/01/27 08:30:04;;;;;;;20.57;14.90;;;1.40;99.90;;;;;;6152005;23;20559;-89
2021/01/27 08:32:40;;;;;;;21.60;14.60;;;1.40;99.90;;;;;;6124285;23;20171;-90
2021/01/27 08:35:09;;;;;;;23.17;14.90;;;1.40;99.90;;;;;;6127720;23;20306;-90
2021/01/27 08:37:41;;;;;;;21.00;14.50;;;1.40;99.90;;;;;;6127255;23;20159;-89
2021/01/27 08:40:11;;;;;;;20.37;14.77;;;1.40;99.90;;;;;;6127737;23;20164;-89
2021/01/27 08:42:42;;;;;;;19.13;14.10;;;1.50;99.90;;;;;;6151740;23;20532;-89
2021/01/27 08:45:17;;;;;;;21.63;13.97;;;1.50;99.90;;;;;;6127383;23;20204;-89
2021/01/27 08:47:44;;;;;;;18.97;13.77;;;1.50;99.90;;;;;;6126747;23;20152;-89
2021/01/27 08:50:40;;;;;;;16.40;12.60;;;1.50;99.90;;;;;;6127034;23;20170;-89
2021/01/27 08:53:15;;;;;;;16.17;12.27;;;1.50;99.90;;;;;;6151852;23;20207;-89
2021/01/27 08:55:44;;;;;;;21.83;12.90;;;1.50;99.90;;;;;;6128578;23;20158;-89
2021/01/27 08:58:24;;;;;;;15.30;11.87;;;1.60;99.90;;;;;;6156168;23;20191;-89
2021/01/27 09:00:52;;;;;;;15.77;11.23;;;1.60;99.90;;;;;;6132456;23;20166;-89
2021/01/27 09:03:36;;;;;;;16.50;11.40;;;1.60;99.90;;;;;;6131803;23;20158;-90
2021/01/27 09:06:18;;;;;;;17.07;11.07;;;1.70;99.90;;;;;;6156699;23;20178;-89
2021/01/27 09:08:45;;;;;;;15.83;10.80;;;1.70;99.90;;;;;;6131718;23;20230;-89
2021/01/27 09:11:11;;;;;;;15.60;10.70;;;1.80;99.90;;;;;;6132469;23;20160;-89
2021/01/27 09:13:39;;;;;;;19.20;11.60;;;1.80;99.90;;;;;;6131637;23;20192;-89
2021/01/27 09:16:20;;;;;;;16.47;11.40;;;1.80;99.90;;;;;;6131062;23;20151;-89
2021/01/27 09:19:13;;;;;;;16.63;11.50;;;1.80;99.90;;;;;;6130953;23;20158;-90
2021/01/27 09:21:39;;;;;;;17.63;12.20;;;1.90;99.90;;;;;;6132139;23;20166;-89
2021/01/27 09:24:09;;;;;;;17.87;11.50;;;1.90;99.90;;;;;;6132281;23;20209;-90
2021/01/27 09:26:46;;;;;;;15.67;11.40;;;2.00;99.90;;;;;;6132646;23;20239;-90
2021/01/27 09:29:42;;;;;;;14.27;11.20;;;2.00;99.90;;;;;;6131251;23;20266;-90
2021/01/27 09:32:16;;;;;;;13.50;10.47;;;2.10;99.90;;;;;;6113523;23;20159;-90
2021/01/27 09:34:43;;;;;;;15.23;11.27;;;2.10;99.90;;;;;;6132156;23;20190;-91
2021/01/27 09:37:12;;;;;;;18.13;10.10;;;2.10;99.90;;;;;;6157897;23;20152;-91
2021/01/27 09:39:51;;;;;;;16.77;9.97;;;2.10;99.90;;;;;;6156016;23;20189;-89
2021/01/27 09:42:29;;;;;;;14.73;10.13;;;2.10;99.90;;;;;;6131661;23;20593;-89
2021/01/27 09:45:03;;;;;;;18.10;9.47;;;2.10;99.90;;;;;;6132272;23;20597;-90
2021/01/27 09:47:30;;;;;;;12.73;8.97;;;2.20;99.90;;;;;;6131806;23;20152;-90
2021/01/27 09:49:59;;;;;;;12.07;9.00;;;2.20;99.90;;;;;;6131546;23;20205;-90
2021/01/27 09:52:27;;;;;;;11.27;8.73;;;2.30;99.90;;;;;;6133563;23;20155;-90
2021/01/27 09:54:58;;;;;;;13.67;8.63;;;2.30;99.90;;;;;;6132770;23;20615;-91
2021/01/27 09:57:25;;;;;;;12.77;7.90;;;2.40;99.90;;;;;;6132225;23;20203;-90
2021/01/27 09:59:56;;;;;;;10.73;8.10;;;2.50;99.90;;;;;;6130211;23;20224;-90
2021/01/27 10:02:27;;;;;;;10.73;6.67;;;2.60;99.90;;;;;;6133028;23;20162;-90
2021/01/27 10:04:53;;;;;;;9.77;6.13;;;2.60;99.90;;;;;;6132591;23;20167;-91
2021/01/27 10:07:30;;;;;;;9.20;6.20;;;2.70;99.90;;;;;;6131969;23;20205;-90
2021/01/27 10:10:07;;;;;;;8.23;6.47;;;2.60;99.90;;;;;;6133532;23;20159;-90
2021/01/27 10:12:34;;;;;;;7.93;5.90;;;2.70;99.90;;;;;;6132022;23;20149;-91
2021/01/27 10:15:19;;;;;;;8.60;6.20;;;2.80;99.90;;;;;;6132125;23;20270;-92
2021/01/27 10:17:48;;;;;;;10.23;6.40;;;2.80;99.90;;;;;;6158453;23;20500;-90
2021/01/27 10:20:23;;;;;;;6.77;5.40;;;2.90;99.90;;;;;;6132080;23;20621;-91
2021/01/27 10:22:59;;;;;;;10.80;6.03;;;2.90;99.90;;;;;;6133206;23;20212;-90
2021/01/27 10:25:29;;;;;;;8.33;6.00;;;2.90;99.90;;;;;;6132393;23;20155;-89
2021/01/27 10:28:11;;;;;;;8.73;6.20;;;2.90;99.90;;;;;;6114315;23;20183;-89
2021/01/27 10:30:56;;;;;;;10.17;6.33;;;3.10;99.90;;;;;;6133480;23;20646;-92
2021/01/27 10:33:48;;;;;;;8.57;5.53;;;3.10;99.90;;;;;;6125737;23;20201;-90
2021/01/27 10:36:42;;;;;;;8.03;5.43;;;3.20;99.90;;;;;;6123791;23;20210;-90
2021/01/27 10:39:26;;;;;;;7.87;5.60;;;3.20;99.90;;;;;;6125230;23;20200;-91
2021/01/27 10:42:21;;;;;;;8.70;5.67;;;3.10;99.90;;;;;;6122756;23;20266;-94
2021/01/27 10:45:06;;;;;;;6.53;4.57;;;3.10;99.90;;;;;;6134580;23;20205;-91
2021/01/27 10:47:32;;;;;;;7.60;5.13;;;3.10;99.90;;;;;;6127178;23;20202;-90
2021/01/27 10:49:58;;;;;;;6.87;5.17;;;3.10;99.90;;;;;;6129884;23;20548;-90
2021/01/27 10:52:27;;;;;;;8.53;5.50;;;3.20;99.90;;;;;;6133455;23;20265;-90
2021/01/27 10:55:02;;;;;;;8.43;5.37;;;3.20;99.90;;;;;;6123263;23;20210;-90
2021/01/27 10:57:28;;;;;;;9.00;5.63;;;3.40;99.90;;;;;;6145867;23;20240;-89
2021/01/27 10:59:55;;;;;;;7.27;4.37;;;3.50;99.90;;;;;;6156470;23;20175;-90
2021/01/27 11:02:21;;;;;;;6.97;3.97;;;3.50;99.90;;;;;;6127087;23;20665;-90
2021/01/27 11:04:47;;;;;;;4.90;3.57;;;3.40;99.90;;;;;;6118972;23;20176;-89
2021/01/27 11:07:13;;;;;;;7.67;3.80;;;3.30;99.90;;;;;;6109060;23;20206;-90
2021/01/27 11:09:39;;;;;;;6.93;3.80;;;3.30;99.90;;;;;;6119013;23;20168;-90
2021/01/27 11:12:05;;;;;;;4.63;3.50;;;3.30;99.90;;;;;;6109340;23;20937;-90
2021/01/27 11:14:31;;;;;;;4.50;3.17;;;3.40;99.90;;;;;;6119152;23;20250;-90
2021/01/27 11:16:56;;;;;;;6.57;3.67;;;3.40;99.90;;;;;;6112579;23;20541;-89
2021/01/27 11:19:22;;;;;;;5.63;3.37;;;3.40;99.90;;;;;;6121436;23;20168;-89
2021/01/27 11:21:48;;;;;;;5.53;3.20;;;3.40;99.90;;;;;;6110609;23;20385;-92
2021/01/27 11:24:13;;;;;;;5.30;3.03;;;3.50;99.90;;;;;;6120463;23;20171;-91
2021/01/27 11:26:39;;;;;;;5.13;3.47;;;3.50;99.90;;;;;;6108663;23;20176;-91
2021/01/27 11:29:05;;;;;;;6.13;3.33;;;3.50;99.90;;;;;;6121106;23;20579;-91
2021/01/27 11:31:30;;;;;;;5.80;3.13;;;3.50;99.90;;;;;;6120554;23;20172;-92
2021/01/27 11:33:57;;;;;;;8.33;3.43;;;3.50;99.90;;;;;;6131035;23;20204;-90
2021/01/27 11:36:24;;;;;;;8.87;3.60;;;3.60;99.90;;;;;;6121101;23;20257;-90
2021/01/27 11:38:51;;;;;;;3.83;2.97;;;3.60;99.90;;;;;;6108358;23;20191;-91
2021/01/27 11:41:18;;;;;;;5.57;3.23;;;3.70;99.90;;;;;;6122009;23;20158;-89
2021/01/27 11:43:44;;;;;;;4.83;3.50;;;3.70;99.90;;;;;;6108282;23;20226;-90
2021/01/27 11:46:16;;;;;;;5.23;3.33;;;3.70;99.90;;;;;;6122310;23;20159;-90
2021/01/27 11:48:42;;;;;;;5.20;3.20;;;3.70;99.90;;;;;;6109956;23;20237;-88
2021/01/27 11:51:10;;;;;;;5.07;3.17;;;3.60;99.90;;;;;;6120816;23;20170;-90
2021/01/27 11:53:37;;;;;;;6.87;3.20;;;3.50;99.90;;;;;;6110181;23;20214;-90
2021/01/27 11:56:03;;;;;;;5.27;3.33;;;3.40;99.90;;;;;;6118931;23;20259;-90
2021/01/27 11:58:30;;;;;;;6.40;3.40;;;3.30;99.90;;;;;;6127287;23;20649;-91
2021/01/27 12:00:57;;;;;;;6.73;3.40;;;3.30;99.90;;;;;;6099445;23;20167;-89
2021/01/27 12:03:23;;;;;;;5.07;3.60;;;3.20;99.90;;;;;;6100120;23;20224;-92
2021/01/27 12:05:48;;;;;;;5.90;3.30;;;3.30;99.90;;;;;;6101582;23;20168;-92
2021/01/27 12:08:16;;;;;;;4.87;3.63;;;3.20;99.90;;;;;;6097619;23;20202;-91
2021/01/27 12:10:42;;;;;;;7.43;3.30;;;3.30;99.90;;;;;;6102967;23;20646;-90
2021/01/27 12:13:08;;;;;;;3.90;2.80;;;3.30;99.90;;;;;;6121311;23;20219;-90
2021/01/27 12:15:34;;;;;;;4.27;3.40;;;3.20;99.90;;;;;;6105344;23;20630;-91
2021/01/27 12:17:59;;;;;;;7.67;2.70;;;3.20;99.90;;;;;;6094707;23;20206;-91
2021/01/27 12:20:25;;;;;;;4.97;3.07;;;3.20;99.90;;;;;;6132965;23;20646;-90
2021/01/27 12:22:51;;;;;;;7.10;3.83;;;3.20;99.90;;;;;;6091366;23;20202;-91
2021/01/27 12:25:17;;;;;;;4.47;3.13;;;3.20;99.90;;;;;;6143453;23;20163;-90
2021/01/27 12:27:43;;;;;;;5.33;3.30;;;3.20;99.90;;;;;;6088464;23;20249;-90
2021/01/27 12:30:10;;;;;;;6.37;2.90;;;3.20;99.90;;;;;;6118504;23;20168;-90
2021/01/27 12:32:37;;;;;;;7.17;3.63;;;3.30;99.90;;;;;;6111025;23;20156;-90
2021/01/27 12:35:04;;;;;;;5.93;3.00;;;3.20;99.90;;;;;;6142705;23;20195;-90
2021/01/27 12:37:30;;;;;;;4.43;3.20;;;3.10;99.90;;;;;;6110029;23;20164;-90
2021/01/27 12:39:56;;;;;;;4.43;3.20;;;3.10;99.90;;;;;;6143901;23;20193;-91
2021/01/27 12:42:22;;;;;;;4.73;3.50;;;3.00;99.90;;;;;;6082712;23;20228;-91
2021/01/27 12:44:47;;;;;;;5.00;3.30;;;3.00;99.90;;;;;;6120289;23;20622;-92
2021/01/27 12:47:13;;;;;;;4.17;2.70;;;3.00;99.90;;;;;;6094257;23;20171;-92
2021/01/27 12:49:40;;;;;;;4.73;3.30;;;3.00;99.90;;;;;;6108619;23;20220;-92
2021/01/27 12:52:06;;;;;;;4.50;3.40;;;2.90;99.90;;;;;;6096831;23;20175;-92
2021/01/27 12:54:33;;;;;;;5.83;3.70;;;2.90;99.90;;;;;;6107985;23;20202;-90
2021/01/27 12:56:58;;;;;;;5.33;3.43;;;2.80;99.90;;;;;;6108026;23;20200;-89
2021/01/27 12:59:24;;;;;;;5.90;4.00;;;2.80;99.90;;;;;;6131947;23;20574;-89
2021/01/27 13:01:50;;;;;;;6.53;3.80;;;2.70;99.90;;;;;;6121170;23;20483;-89
2021/01/27 13:04:16;;;;;;;5.40;3.77;;;2.70;99.90;;;;;;6110718;23;20648;-89
2021/01/27 13:06:42;;;;;;;4.93;3.83;;;2.60;99.90;;;;;;6120748;23;20261;-89
2021/01/27 13:09:08;;;;;;;5.57;4.27;;;2.50;99.90;;;;;;6110418;23;20194;-91
2021/01/27 13:11:34;;;;;;;6.60;4.30;;;2.50;99.90;;;;;;6119646;23;20179;-90
2021/01/27 13:14:00;;;;;;;6.83;4.00;;;2.50;99.90;;;;;;6110431;23;20200;-90
2021/01/27 13:16:27;;;;;;;5.23;4.07;;;2.50;99.90;;;;;;6126526;23;20172;-90
2021/01/27 13:18:53;;;;;;;4.83;4.33;;;2.50;99.90;;;;;;6109195;23;20622;-91
2021/01/27 13:21:18;;;;;;;5.60;4.30;;;2.50;99.90;;;;;;6127392;23;20516;-90
2021/01/27 13:23:47;;;;;;;5.43;4.00;;;2.40;99.90;;;;;;6110243;23;20199;-89